sensor_id;sensor_type;location;lat;lon;timestamp;P1;durP1;ratioP1;P2;durP2;ratioP2
36105;SDS011;22159;55.736;38.048;2023-02-01T00:00:12;3.97;;;3.35;;
36105;SDS011;22159;55.736;38.048;2023-02-01T00:02:38;3.95;;;3.45;;
36105;SDS011;22159;55.736;38.048;2023-02-01T00:05:08;3.42;;;3.13;;
36105;SDS011;22159;55.736;38.048;2023-02-01T00:07:35;4.45;;;3.47;;
36105;SDS011;22159;55.736;38.048;2023-02-01T00:10:01;3.38;;;3.08;;
36105;SDS011;22159;55.736;38.048;2023-02-01T00:12:28;3.90;;;3.50;;
36105;SDS011;22159;55.736;38.048;2023-02-01T00:14:54;4.03;;;3.42;;
36105;SDS011;22159;55.736;38.048;2023-02-01T00:17:20;3.92;;;3.50;;
36105;SDS011;22159;55.736;38.048;2023-02-01T00:19:46;4.00;;;3.30;;
36105;SDS011;22159;55.736;38.048;2023-02-01T00:22:12;3.70;;;3.25;;
36105;SDS011;22159;55.736;38.048;2023-02-01T00:24:38;4.20;;;3.40;;
36105;SDS011;22159;55.736;38.048;2023-02-01T00:27:04;4.05;;;3.40;;
36105;SDS011;22159;55.736;38.048;2023-02-01T00:29:30;3.80;;;3.40;;
36105;SDS011;22159;55.736;38.048;2023-02-01T00:31:56;3.83;;;3.40;;
36105;SDS011;22159;55.736;38.048;2023-02-01T00:34:22;3.55;;;3.25;;
36105;SDS011;22159;55.736;38.048;2023-02-01T00:36:48;4.32;;;3.63;;
36105;SDS011;22159;55.736;38.048;2023-02-01T00:39:14;3.60;;;3.30;;
36105;SDS011;22159;55.736;38.048;2023-02-01T00:41:42;3.88;;;3.38;;
36105;SDS011;22159;55.736;38.048;2023-02-01T00:44:08;4.13;;;3.47;;
36105;SDS011;22159;55.736;38.048;2023-02-01T00:46:34;3.92;;;3.45;;
36105;SDS011;22159;55.736;38.048;2023-02-01T00:49:01;3.90;;;3.50;;
36105;SDS011;22159;55.736;38.048;2023-02-01T00:51:27;3.78;;;3.35;;
36105;SDS011;22159;55.736;38.048;2023-02-01T00:53:53;4.78;;;3.58;;
36105;SDS011;22159;55.736;38.048;2023-02-01T00:56:20;4.00;;;3.63;;
36105;SDS011;22159;55.736;38.048;2023-02-01T00:58:46;3.53;;;3.22;;
36105;SDS011;22159;55.736;38.048;2023-02-01T01:01:17;4.25;;;3.63;;
36105;SDS011;22159;55.736;38.048;2023-02-01T01:03:44;3.63;;;3.15;;
36105;SDS011;22159;55.736;38.048;2023-02-01T01:06:15;4.10;;;3.70;;
36105;SDS011;22159;55.736;38.048;2023-02-01T01:08:41;4.15;;;3.25;;
36105;SDS011;22159;55.736;38.048;2023-02-01T01:11:08;3.40;;;3.10;;
36105;SDS011;22159;55.736;38.048;2023-02-01T01:13:35;4.53;;;3.40;;
36105;SDS011;22159;55.736;38.048;2023-02-01T01:16:02;3.47;;;3.17;;
36105;SDS011;22159;55.736;38.048;2023-02-01T01:18:29;4.38;;;3.67;;
36105;SDS011;22159;55.736;38.048;2023-02-01T01:20:55;4.00;;;3.60;;
36105;SDS011;22159;55.736;38.048;2023-02-01T01:23:21;4.00;;;3.40;;
36105;SDS011;22159;55.736;38.048;2023-02-01T01:25:47;4.00;;;3.45;;
36105;SDS011;22159;55.736;38.048;2023-02-01T01:28:13;3.50;;;3.03;;
36105;SDS011;22159;55.736;38.048;2023-02-01T01:30:39;4.13;;;3.33;;
36105;SDS011;22159;55.736;38.048;2023-02-01T01:33:06;3.67;;;3.38;;
36105;SDS011;22159;55.736;38.048;2023-02-01T01:35:32;3.65;;;3.28;;
36105;SDS011;22159;55.736;38.048;2023-02-01T01:37:58;4.72;;;3.65;;
36105;SDS011;22159;55.736;38.048;2023-02-01T01:40:25;3.47;;;3.00;;
36105;SDS011;22159;55.736;38.048;2023-02-01T01:42:51;3.60;;;3.30;;
36105;SDS011;22159;55.736;38.048;2023-02-01T01:47:50;3.35;;;2.92;;
36105;SDS011;22159;55.736;38.048;2023-02-01T01:50:18;3.75;;;3.30;;
36105;SDS011;22159;55.736;38.048;2023-02-01T01:52:46;3.80;;;3.40;;
36105;SDS011;22159;55.736;38.048;2023-02-01T01:55:13;4.05;;;3.10;;
36105;SDS011;22159;55.736;38.048;2023-02-01T01:57:41;3.67;;;3.08;;
36105;SDS011;22159;55.736;38.048;2023-02-01T02:00:09;3.65;;;3.10;;
36105;SDS011;22159;55.736;38.048;2023-02-01T02:02:36;3.53;;;3.22;;
36105;SDS011;22159;55.736;38.048;2023-02-01T02:05:03;3.53;;;3.22;;
36105;SDS011;22159;55.736;38.048;2023-02-01T02:07:30;3.35;;;2.90;;
36105;SDS011;22159;55.736;38.048;2023-02-01T02:09:57;4.10;;;3.25;;
36105;SDS011;22159;55.736;38.048;2023-02-01T02:12:23;3.58;;;3.10;;
36105;SDS011;22159;55.736;38.048;2023-02-01T02:14:49;3.55;;;3.25;;
36105;SDS011;22159;55.736;38.048;2023-02-01T02:27:30;3.85;;;3.20;;
36105;SDS011;22159;55.736;38.048;2023-02-01T02:42:40;3.55;;;3.25;;
36105;SDS011;22159;55.736;38.048;2023-02-01T02:45:28;3.28;;;2.97;;
36105;SDS011;22159;55.736;38.048;2023-02-01T02:48:17;3.45;;;2.92;;
36105;SDS011;22159;55.736;38.048;2023-02-01T02:50:46;3.90;;;3.22;;
36105;SDS011;22159;55.736;38.048;2023-02-01T02:53:42;3.20;;;2.90;;
36105;SDS011;22159;55.736;38.048;2023-02-01T02:56:27;3.80;;;3.40;;
36105;SDS011;22159;55.736;38.048;2023-02-01T02:59:12;3.67;;;3.38;;
36105;SDS011;22159;55.736;38.048;2023-02-01T03:01:58;3.22;;;2.80;;
36105;SDS011;22159;55.736;38.048;2023-02-01T03:04:43;3.15;;;2.85;;
36105;SDS011;22159;55.736;38.048;2023-02-01T03:09:53;3.72;;;3.33;;
36105;SDS011;22159;55.736;38.048;2023-02-01T03:12:19;3.97;;;3.08;;
36105;SDS011;22159;55.736;38.048;2023-02-01T03:15:08;4.07;;;3.30;;
36105;SDS011;22159;55.736;38.048;2023-02-01T03:17:38;3.97;;;3.20;;
36105;SDS011;22159;55.736;38.048;2023-02-01T03:20:05;3.72;;;3.30;;
36105;SDS011;22159;55.736;38.048;2023-02-01T03:22:31;3.97;;;3.58;;
36105;SDS011;22159;55.736;38.048;2023-02-01T03:25:03;4.47;;;3.47;;
36105;SDS011;22159;55.736;38.048;2023-02-01T03:27:34;3.92;;;3.53;;
36105;SDS011;22159;55.736;38.048;2023-02-01T03:30:03;4.18;;;3.55;;
36105;SDS011;22159;55.736;38.048;2023-02-01T03:32:32;4.47;;;3.53;;
36105;SDS011;22159;55.736;38.048;2023-02-01T03:35:18;3.70;;;3.33;;
36105;SDS011;22159;55.736;38.048;2023-02-01T03:37:47;4.07;;;3.30;;
36105;SDS011;22159;55.736;38.048;2023-02-01T03:40:14;3.85;;;3.53;;
36105;SDS011;22159;55.736;38.048;2023-02-01T03:42:43;4.38;;;3.25;;
36105;SDS011;22159;55.736;38.048;2023-02-01T03:47:40;3.80;;;3.40;;
36105;SDS011;22159;55.736;38.048;2023-02-01T03:50:09;3.38;;;3.08;;
36105;SDS011;22159;55.736;38.048;2023-02-01T03:55:02;3.67;;;3.30;;
36105;SDS011;22159;55.736;38.048;2023-02-01T03:57:29;3.90;;;3.50;;
36105;SDS011;22159;55.736;38.048;2023-02-01T04:00:05;5.00;;;3.60;;
36105;SDS011;22159;55.736;38.048;2023-02-01T04:02:32;3.97;;;3.45;;
36105;SDS011;22159;55.736;38.048;2023-02-01T04:04:58;5.40;;;3.03;;
36105;SDS011;22159;55.736;38.048;2023-02-01T04:07:24;5.50;;;3.40;;
36105;SDS011;22159;55.736;38.048;2023-02-01T04:09:50;3.80;;;3.00;;
36105;SDS011;22159;55.736;38.048;2023-02-01T04:12:16;3.72;;;3.20;;
36105;SDS011;22159;55.736;38.048;2023-02-01T04:14:42;4.35;;;2.88;;
36105;SDS011;22159;55.736;38.048;2023-02-01T04:17:08;7.53;;;3.53;;
36105;SDS011;22159;55.736;38.048;2023-02-01T04:19:34;3.90;;;3.42;;
36105;SDS011;22159;55.736;38.048;2023-02-01T04:22:00;4.78;;;3.30;;
36105;SDS011;22159;55.736;38.048;2023-02-01T04:24:26;7.10;;;4.88;;
36105;SDS011;22159;55.736;38.048;2023-02-01T04:26:52;7.35;;;5.15;;
36105;SDS011;22159;55.736;38.048;2023-02-01T04:29:18;7.45;;;5.05;;
36105;SDS011;22159;55.736;38.048;2023-02-01T04:31:44;6.60;;;4.80;;
36105;SDS011;22159;55.736;38.048;2023-02-01T04:34:11;6.45;;;4.65;;
36105;SDS011;22159;55.736;38.048;2023-02-01T04:36:37;6.97;;;4.65;;
36105;SDS011;22159;55.736;38.048;2023-02-01T04:39:03;5.82;;;4.90;;
36105;SDS011;22159;55.736;38.048;2023-02-01T04:41:29;5.88;;;4.60;;
36105;SDS011;22159;55.736;38.048;2023-02-01T04:43:55;5.30;;;4.50;;
36105;SDS011;22159;55.736;38.048;2023-02-01T04:46:21;6.13;;;4.43;;
36105;SDS011;22159;55.736;38.048;2023-02-01T04:48:47;9.10;;;4.72;;
36105;SDS011;22159;55.736;38.048;2023-02-01T04:51:13;5.68;;;4.13;;
36105;SDS011;22159;55.736;38.048;2023-02-01T04:53:40;7.43;;;4.35;;
36105;SDS011;22159;55.736;38.048;2023-02-01T04:56:06;5.22;;;4.05;;
36105;SDS011;22159;55.736;38.048;2023-02-01T04:58:33;5.20;;;4.20;;
36105;SDS011;22159;55.736;38.048;2023-02-01T05:00:59;6.88;;;4.15;;
36105;SDS011;22159;55.736;38.048;2023-02-01T05:03:27;4.53;;;3.95;;
36105;SDS011;22159;55.736;38.048;2023-02-01T05:05:53;5.05;;;4.32;;
36105;SDS011;22159;55.736;38.048;2023-02-01T05:08:19;5.50;;;3.88;;
36105;SDS011;22159;55.736;38.048;2023-02-01T05:10:47;5.97;;;4.35;;
36105;SDS011;22159;55.736;38.048;2023-02-01T05:13:13;6.25;;;3.90;;
36105;SDS011;22159;55.736;38.048;2023-02-01T05:15:58;5.72;;;4.15;;
36105;SDS011;22159;55.736;38.048;2023-02-01T05:18:24;6.65;;;4.30;;
36105;SDS011;22159;55.736;38.048;2023-02-01T05:20:50;4.53;;;3.85;;
36105;SDS011;22159;55.736;38.048;2023-02-01T05:23:16;8.18;;;3.78;;
36105;SDS011;22159;55.736;38.048;2023-02-01T05:25:42;7.18;;;3.75;;
36105;SDS011;22159;55.736;38.048;2023-02-01T05:28:08;4.03;;;3.50;;
36105;SDS011;22159;55.736;38.048;2023-02-01T05:30:34;5.40;;;3.90;;
36105;SDS011;22159;55.736;38.048;2023-02-01T05:33:01;3.97;;;3.58;;
36105;SDS011;22159;55.736;38.048;2023-02-01T05:35:27;4.10;;;3.60;;
36105;SDS011;22159;55.736;38.048;2023-02-01T05:37:53;4.93;;;3.55;;
36105;SDS011;22159;55.736;38.048;2023-02-01T05:40:19;5.88;;;3.90;;
36105;SDS011;22159;55.736;38.048;2023-02-01T05:42:45;5.47;;;3.38;;
36105;SDS011;22159;55.736;38.048;2023-02-01T05:45:11;4.45;;;4.05;;
36105;SDS011;22159;55.736;38.048;2023-02-01T05:47:37;5.97;;;3.63;;
36105;SDS011;22159;55.736;38.048;2023-02-01T05:50:04;4.72;;;3.50;;
36105;SDS011;22159;55.736;38.048;2023-02-01T05:52:30;3.97;;;3.03;;
36105;SDS011;22159;55.736;38.048;2023-02-01T05:54:57;4.38;;;3.20;;
36105;SDS011;22159;55.736;38.048;2023-02-01T05:57:23;4.97;;;3.28;;
36105;SDS011;22159;55.736;38.048;2023-02-01T05:59:49;4.53;;;3.08;;
36105;SDS011;22159;55.736;38.048;2023-02-01T06:02:15;4.15;;;3.45;;
36105;SDS011;22159;55.736;38.048;2023-02-01T06:04:41;3.65;;;3.13;;
36105;SDS011;22159;55.736;38.048;2023-02-01T06:07:08;4.28;;;3.60;;
36105;SDS011;22159;55.736;38.048;2023-02-01T06:09:35;4.22;;;3.45;;
36105;SDS011;22159;55.736;38.048;2023-02-01T06:12:01;4.32;;;3.42;;
36105;SDS011;22159;55.736;38.048;2023-02-01T06:14:27;3.33;;;3.00;;
36105;SDS011;22159;55.736;38.048;2023-02-01T06:16:54;3.50;;;3.03;;
36105;SDS011;22159;55.736;38.048;2023-02-01T06:19:20;3.40;;;3.10;;
36105;SDS011;22159;55.736;38.048;2023-02-01T06:21:46;4.50;;;3.42;;
36105;SDS011;22159;55.736;38.048;2023-02-01T06:24:12;4.72;;;3.10;;
36105;SDS011;22159;55.736;38.048;2023-02-01T06:26:38;5.35;;;3.50;;
36105;SDS011;22159;55.736;38.048;2023-02-01T06:29:09;3.45;;;3.00;;
36105;SDS011;22159;55.736;38.048;2023-02-01T06:31:35;4.85;;;3.33;;
36105;SDS011;22159;55.736;38.048;2023-02-01T06:34:01;3.67;;;3.17;;
36105;SDS011;22159;55.736;38.048;2023-02-01T06:36:27;4.60;;;3.30;;
36105;SDS011;22159;55.736;38.048;2023-02-01T06:38:53;3.70;;;3.03;;
36105;SDS011;22159;55.736;38.048;2023-02-01T06:41:21;3.65;;;3.30;;
36105;SDS011;22159;55.736;38.048;2023-02-01T06:43:47;3.28;;;2.95;;
36105;SDS011;22159;55.736;38.048;2023-02-01T06:46:14;4.22;;;2.90;;
36105;SDS011;22159;55.736;38.048;2023-02-01T06:48:40;4.85;;;3.45;;
36105;SDS011;22159;55.736;38.048;2023-02-01T06:51:12;3.17;;;2.88;;
36105;SDS011;22159;55.736;38.048;2023-02-01T06:53:41;4.65;;;3.70;;
36105;SDS011;22159;55.736;38.048;2023-02-01T06:56:08;4.63;;;3.25;;
36105;SDS011;22159;55.736;38.048;2023-02-01T06:58:34;3.63;;;3.00;;
36105;SDS011;22159;55.736;38.048;2023-02-01T07:01:04;3.60;;;2.95;;
36105;SDS011;22159;55.736;38.048;2023-02-01T07:03:31;3.88;;;2.80;;
36105;SDS011;22159;55.736;38.048;2023-02-01T07:05:57;3.85;;;3.15;;
36105;SDS011;22159;55.736;38.048;2023-02-01T07:08:29;4.50;;;2.78;;
36105;SDS011;22159;55.736;38.048;2023-02-01T07:10:56;4.63;;;2.85;;
36105;SDS011;22159;55.736;38.048;2023-02-01T07:13:22;3.67;;;3.20;;
36105;SDS011;22159;55.736;38.048;2023-02-01T07:15:48;3.63;;;2.80;;
36105;SDS011;22159;55.736;38.048;2023-02-01T07:18:14;3.60;;;2.80;;
36105;SDS011;22159;55.736;38.048;2023-02-01T07:20:41;3.28;;;2.97;;
36105;SDS011;22159;55.736;38.048;2023-02-01T07:23:08;3.20;;;2.90;;
36105;SDS011;22159;55.736;38.048;2023-02-01T07:25:35;3.75;;;2.95;;
36105;SDS011;22159;55.736;38.048;2023-02-01T07:28:01;3.30;;;3.00;;
36105;SDS011;22159;55.736;38.048;2023-02-01T07:30:27;3.55;;;3.25;;
36105;SDS011;22159;55.736;38.048;2023-02-01T07:32:54;3.75;;;2.80;;
36105;SDS011;22159;55.736;38.048;2023-02-01T07:35:20;3.05;;;2.75;;
36105;SDS011;22159;55.736;38.048;2023-02-01T07:37:46;3.40;;;3.10;;
36105;SDS011;22159;55.736;38.048;2023-02-01T07:40:12;4.53;;;4.07;;
36105;SDS011;22159;55.736;38.048;2023-02-01T07:42:38;3.72;;;3.42;;
36105;SDS011;22159;55.736;38.048;2023-02-01T07:45:05;4.18;;;3.60;;
36105;SDS011;22159;55.736;38.048;2023-02-01T07:47:31;4.65;;;3.67;;
36105;SDS011;22159;55.736;38.048;2023-02-01T07:49:57;4.63;;;3.40;;
36105;SDS011;22159;55.736;38.048;2023-02-01T07:52:23;4.43;;;3.22;;
36105;SDS011;22159;55.736;38.048;2023-02-01T07:54:49;4.22;;;3.45;;
36105;SDS011;22159;55.736;38.048;2023-02-01T07:57:15;3.60;;;3.28;;
36105;SDS011;22159;55.736;38.048;2023-02-01T07:59:41;4.05;;;3.42;;
36105;SDS011;22159;55.736;38.048;2023-02-01T08:02:27;3.83;;;3.20;;
36105;SDS011;22159;55.736;38.048;2023-02-01T08:04:53;4.72;;;3.40;;
36105;SDS011;22159;55.736;38.048;2023-02-01T08:07:19;3.53;;;3.17;;
36105;SDS011;22159;55.736;38.048;2023-02-01T08:09:45;4.68;;;3.30;;
36105;SDS011;22159;55.736;38.048;2023-02-01T08:12:11;4.07;;;3.05;;
36105;SDS011;22159;55.736;38.048;2023-02-01T08:14:37;3.60;;;2.72;;
36105;SDS011;22159;55.736;38.048;2023-02-01T08:17:05;4.03;;;2.65;;
36105;SDS011;22159;55.736;38.048;2023-02-01T08:19:31;4.32;;;3.47;;
36105;SDS011;22159;55.736;38.048;2023-02-01T08:21:57;4.13;;;3.03;;
36105;SDS011;22159;55.736;38.048;2023-02-01T08:24:24;4.75;;;3.00;;
36105;SDS011;22159;55.736;38.048;2023-02-01T08:26:50;3.03;;;2.72;;
36105;SDS011;22159;55.736;38.048;2023-02-01T08:29:16;3.47;;;2.92;;
36105;SDS011;22159;55.736;38.048;2023-02-01T08:31:42;3.60;;;2.85;;
36105;SDS011;22159;55.736;38.048;2023-02-01T08:34:09;3.80;;;2.90;;
36105;SDS011;22159;55.736;38.048;2023-02-01T08:36:36;4.50;;;2.78;;
36105;SDS011;22159;55.736;38.048;2023-02-01T08:39:03;3.35;;;2.75;;
36105;SDS011;22159;55.736;38.048;2023-02-01T08:41:33;4.10;;;2.97;;
36105;SDS011;22159;55.736;38.048;2023-02-01T08:43:59;2.83;;;2.55;;
36105;SDS011;22159;55.736;38.048;2023-02-01T08:46:26;3.65;;;3.00;;
36105;SDS011;22159;55.736;38.048;2023-02-01T08:48:52;3.03;;;2.65;;
36105;SDS011;22159;55.736;38.048;2023-02-01T08:51:18;3.22;;;2.80;;
36105;SDS011;22159;55.736;38.048;2023-02-01T08:53:44;3.65;;;2.63;;
36105;SDS011;22159;55.736;38.048;2023-02-01T08:56:11;4.47;;;2.92;;
36105;SDS011;22159;55.736;38.048;2023-02-01T08:58:38;3.22;;;2.75;;
36105;SDS011;22159;55.736;38.048;2023-02-01T09:01:04;3.95;;;2.75;;
36105;SDS011;22159;55.736;38.048;2023-02-01T09:03:30;4.28;;;2.92;;
36105;SDS011;22159;55.736;38.048;2023-02-01T09:06:03;4.20;;;2.97;;
36105;SDS011;22159;55.736;38.048;2023-02-01T09:08:29;4.72;;;3.10;;
36105;SDS011;22159;55.736;38.048;2023-02-01T09:10:59;3.67;;;2.97;;
36105;SDS011;22159;55.736;38.048;2023-02-01T09:13:25;6.68;;;3.33;;
36105;SDS011;22159;55.736;38.048;2023-02-01T09:15:52;6.05;;;2.90;;
36105;SDS011;22159;55.736;38.048;2023-02-01T09:18:18;4.68;;;2.95;;
36105;SDS011;22159;55.736;38.048;2023-02-01T09:20:44;6.22;;;3.03;;
36105;SDS011;22159;55.736;38.048;2023-02-01T09:23:10;4.95;;;2.78;;
36105;SDS011;22159;55.736;38.048;2023-02-01T09:25:37;3.60;;;2.70;;
36105;SDS011;22159;55.736;38.048;2023-02-01T09:28:03;4.40;;;2.95;;
36105;SDS011;22159;55.736;38.048;2023-02-01T09:30:31;5.25;;;2.90;;
36105;SDS011;22159;55.736;38.048;2023-02-01T09:32:57;5.97;;;2.90;;
36105;SDS011;22159;55.736;38.048;2023-02-01T09:35:23;6.80;;;2.90;;
36105;SDS011;22159;55.736;38.048;2023-02-01T09:37:49;6.38;;;3.13;;
36105;SDS011;22159;55.736;38.048;2023-02-01T09:40:15;5.40;;;3.17;;
36105;SDS011;22159;55.736;38.048;2023-02-01T09:47:48;4.80;;;3.20;;
36105;SDS011;22159;55.736;38.048;2023-02-01T09:50:16;5.18;;;2.90;;
36105;SDS011;22159;55.736;38.048;2023-02-01T09:55:24;4.15;;;2.63;;
36105;SDS011;22159;55.736;38.048;2023-02-01T09:58:00;4.28;;;3.40;;
36105;SDS011;22159;55.736;38.048;2023-02-01T10:00:31;5.90;;;2.65;;
36105;SDS011;22159;55.736;38.048;2023-02-01T10:02:59;6.35;;;3.00;;
36105;SDS011;22159;55.736;38.048;2023-02-01T10:10:48;4.30;;;3.45;;
36105;SDS011;22159;55.736;38.048;2023-02-01T10:15:52;6.05;;;3.10;;
36105;SDS011;22159;55.736;38.048;2023-02-01T10:26:44;3.95;;;3.15;;
36105;SDS011;22159;55.736;38.048;2023-02-01T10:29:02;5.25;;;3.03;;
36105;SDS011;22159;55.736;38.048;2023-02-01T10:31:30;4.93;;;3.10;;
36105;SDS011;22159;55.736;38.048;2023-02-01T10:33:58;5.47;;;3.38;;
36105;SDS011;22159;55.736;38.048;2023-02-01T10:36:32;4.50;;;3.13;;
36105;SDS011;22159;55.736;38.048;2023-02-01T10:39:02;4.50;;;2.95;;
36105;SDS011;22159;55.736;38.048;2023-02-01T10:41:38;4.32;;;3.13;;
36105;SDS011;22159;55.736;38.048;2023-02-01T10:44:07;4.60;;;3.30;;
36105;SDS011;22159;55.736;38.048;2023-02-01T10:46:35;7.47;;;3.03;;
36105;SDS011;22159;55.736;38.048;2023-02-01T10:49:03;7.07;;;3.45;;
36105;SDS011;22159;55.736;38.048;2023-02-01T10:51:32;5.47;;;3.08;;
36105;SDS011;22159;55.736;38.048;2023-02-01T10:54:10;4.40;;;2.75;;
36105;SDS011;22159;55.736;38.048;2023-02-01T10:56:37;3.50;;;3.00;;
36105;SDS011;22159;55.736;38.048;2023-02-01T10:59:04;4.25;;;2.72;;
36105;SDS011;22159;55.736;38.048;2023-02-01T11:01:33;3.47;;;2.92;;
36105;SDS011;22159;55.736;38.048;2023-02-01T11:04:04;4.15;;;3.08;;
36105;SDS011;22159;55.736;38.048;2023-02-01T11:06:32;4.55;;;3.13;;
36105;SDS011;22159;55.736;38.048;2023-02-01T11:11:28;6.25;;;3.35;;
36105;SDS011;22159;55.736;38.048;2023-02-01T11:13:58;4.07;;;2.85;;
36105;SDS011;22159;55.736;38.048;2023-02-01T11:16:34;4.93;;;2.93;;
36105;SDS011;22159;55.736;38.048;2023-02-01T11:19:00;6.05;;;3.10;;
36105;SDS011;22159;55.736;38.048;2023-02-01T11:21:26;5.22;;;3.00;;
36105;SDS011;22159;55.736;38.048;2023-02-01T11:23:53;4.07;;;3.00;;
36105;SDS011;22159;55.736;38.048;2023-02-01T11:26:23;3.75;;;2.88;;
36105;SDS011;22159;55.736;38.048;2023-02-01T11:28:54;4.20;;;2.83;;
36105;SDS011;22159;55.736;38.048;2023-02-01T11:31:22;4.53;;;3.15;;
36105;SDS011;22159;55.736;38.048;2023-02-01T11:33:54;4.32;;;3.40;;
36105;SDS011;22159;55.736;38.048;2023-02-01T11:36:23;3.53;;;2.75;;
36105;SDS011;22159;55.736;38.048;2023-02-01T11:39:36;3.47;;;3.00;;
36105;SDS011;22159;55.736;38.048;2023-02-01T11:41:44;3.58;;;2.83;;
36105;SDS011;22159;55.736;38.048;2023-02-01T11:44:22;4.45;;;3.10;;
36105;SDS011;22159;55.736;38.048;2023-02-01T11:46:52;3.67;;;2.57;;
36105;SDS011;22159;55.736;38.048;2023-02-01T11:51:57;4.65;;;3.20;;
36105;SDS011;22159;55.736;38.048;2023-02-01T11:59:52;2.67;;;2.42;;
36105;SDS011;22159;55.736;38.048;2023-02-01T12:02:30;3.53;;;2.58;;
36105;SDS011;22159;55.736;38.048;2023-02-01T12:05:06;3.58;;;2.78;;
36105;SDS011;22159;55.736;38.048;2023-02-01T12:15:22;2.90;;;2.58;;
36105;SDS011;22159;55.736;38.048;2023-02-01T12:18:00;3.17;;;2.88;;
36105;SDS011;22159;55.736;38.048;2023-02-01T12:35:58;4.25;;;2.78;;
36105;SDS011;22159;55.736;38.048;2023-02-01T12:45:59;3.75;;;3.00;;
36105;SDS011;22159;55.736;38.048;2023-02-01T12:48:38;3.75;;;3.15;;
36105;SDS011;22159;55.736;38.048;2023-02-01T12:51:09;4.25;;;2.97;;
36105;SDS011;22159;55.736;38.048;2023-02-01T12:56:03;2.90;;;2.60;;
36105;SDS011;22159;55.736;38.048;2023-02-01T13:01:30;3.75;;;2.75;;
36105;SDS011;22159;55.736;38.048;2023-02-01T13:06:57;3.25;;;2.58;;
36105;SDS011;22159;55.736;38.048;2023-02-01T13:09:34;3.60;;;2.80;;
36105;SDS011;22159;55.736;38.048;2023-02-01T13:12:10;3.78;;;2.60;;
36105;SDS011;22159;55.736;38.048;2023-02-01T13:14:48;4.00;;;2.30;;
36105;SDS011;22159;55.736;38.048;2023-02-01T13:27:13;4.32;;;2.53;;
36105;SDS011;22159;55.736;38.048;2023-02-01T13:30:23;3.28;;;2.53;;
36105;SDS011;22159;55.736;38.048;2023-02-01T13:37:51;4.28;;;2.85;;
36105;SDS011;22159;55.736;38.048;2023-02-01T13:42:58;3.45;;;2.45;;
36105;SDS011;22159;55.736;38.048;2023-02-01T13:45:27;2.53;;;2.33;;
36105;SDS011;22159;55.736;38.048;2023-02-01T13:47:54;2.72;;;2.40;;
36105;SDS011;22159;55.736;38.048;2023-02-01T13:52:54;3.67;;;2.80;;
36105;SDS011;22159;55.736;38.048;2023-02-01T13:57:50;3.58;;;2.33;;
36105;SDS011;22159;55.736;38.048;2023-02-01T14:00:28;3.28;;;2.70;;
36105;SDS011;22159;55.736;38.048;2023-02-01T14:03:02;3.78;;;2.72;;
36105;SDS011;22159;55.736;38.048;2023-02-01T14:10:49;2.95;;;2.60;;
36105;SDS011;22159;55.736;38.048;2023-02-01T14:13:32;2.50;;;2.30;;
36105;SDS011;22159;55.736;38.048;2023-02-01T14:26:22;3.60;;;2.55;;
36105;SDS011;22159;55.736;38.048;2023-02-01T14:28:51;3.55;;;2.58;;
36105;SDS011;22159;55.736;38.048;2023-02-01T14:34:11;3.83;;;2.70;;
36105;SDS011;22159;55.736;38.048;2023-02-01T14:36:45;5.53;;;3.80;;
36105;SDS011;22159;55.736;38.048;2023-02-01T14:39:20;4.53;;;3.42;;
36105;SDS011;22159;55.736;38.048;2023-02-01T14:41:47;5.10;;;3.90;;
36105;SDS011;22159;55.736;38.048;2023-02-01T14:44:14;5.32;;;4.22;;
36105;SDS011;22159;55.736;38.048;2023-02-01T14:49:32;6.30;;;4.72;;
36105;SDS011;22159;55.736;38.048;2023-02-01T14:51:59;7.03;;;4.88;;
36105;SDS011;22159;55.736;38.048;2023-02-01T14:54:25;5.43;;;4.57;;
36105;SDS011;22159;55.736;38.048;2023-02-01T14:56:52;6.00;;;5.03;;
36105;SDS011;22159;55.736;38.048;2023-02-01T14:59:20;5.22;;;4.53;;
36105;SDS011;22159;55.736;38.048;2023-02-01T15:01:52;5.47;;;4.70;;
36105;SDS011;22159;55.736;38.048;2023-02-01T15:04:19;7.82;;;4.47;;
36105;SDS011;22159;55.736;38.048;2023-02-01T15:09:38;6.20;;;4.57;;
36105;SDS011;22159;55.736;38.048;2023-02-01T15:14:39;5.55;;;4.50;;
36105;SDS011;22159;55.736;38.048;2023-02-01T15:17:22;5.75;;;4.50;;
36105;SDS011;22159;55.736;38.048;2023-02-01T15:19:55;5.90;;;4.28;;
36105;SDS011;22159;55.736;38.048;2023-02-01T15:22:22;8.55;;;4.90;;
36105;SDS011;22159;55.736;38.048;2023-02-01T15:24:51;7.10;;;5.13;;
36105;SDS011;22159;55.736;38.048;2023-02-01T15:27:19;5.78;;;5.03;;
36105;SDS011;22159;55.736;38.048;2023-02-01T15:29:45;5.47;;;4.85;;
36105;SDS011;22159;55.736;38.048;2023-02-01T15:32:30;6.20;;;4.57;;
36105;SDS011;22159;55.736;38.048;2023-02-01T15:34:57;7.38;;;5.05;;
36105;SDS011;22159;55.736;38.048;2023-02-01T15:37:23;6.53;;;5.03;;
36105;SDS011;22159;55.736;38.048;2023-02-01T15:42:35;7.38;;;4.30;;
36105;SDS011;22159;55.736;38.048;2023-02-01T15:45:03;6.03;;;3.75;;
36105;SDS011;22159;55.736;38.048;2023-02-01T15:47:29;4.75;;;3.50;;
36105;SDS011;22159;55.736;38.048;2023-02-01T15:49:57;6.10;;;4.10;;
36105;SDS011;22159;55.736;38.048;2023-02-01T15:52:25;4.93;;;3.83;;
36105;SDS011;22159;55.736;38.048;2023-02-01T15:54:56;4.68;;;3.67;;
36105;SDS011;22159;55.736;38.048;2023-02-01T15:57:34;5.28;;;3.35;;
36105;SDS011;22159;55.736;38.048;2023-02-01T16:00:05;5.03;;;3.50;;
36105;SDS011;22159;55.736;38.048;2023-02-01T16:02:44;3.75;;;3.35;;
36105;SDS011;22159;55.736;38.048;2023-02-01T16:05:37;5.18;;;3.45;;
36105;SDS011;22159;55.736;38.048;2023-02-01T16:08:06;4.55;;;3.42;;
36105;SDS011;22159;55.736;38.048;2023-02-01T16:10:40;4.63;;;3.60;;
36105;SDS011;22159;55.736;38.048;2023-02-01T16:13:06;5.63;;;3.30;;
36105;SDS011;22159;55.736;38.048;2023-02-01T16:15:32;3.78;;;3.05;;
36105;SDS011;22159;55.736;38.048;2023-02-01T16:17:58;4.25;;;3.13;;
36105;SDS011;22159;55.736;38.048;2023-02-01T16:20:24;3.58;;;3.00;;
36105;SDS011;22159;55.736;38.048;2023-02-01T16:25:54;4.30;;;3.22;;
36105;SDS011;22159;55.736;38.048;2023-02-01T16:28:20;3.80;;;3.33;;
36105;SDS011;22159;55.736;38.048;2023-02-01T16:30:47;3.90;;;2.92;;
36105;SDS011;22159;55.736;38.048;2023-02-01T16:33:16;4.47;;;3.10;;
36105;SDS011;22159;55.736;38.048;2023-02-01T16:35:45;3.03;;;2.60;;
36105;SDS011;22159;55.736;38.048;2023-02-01T16:38:12;4.97;;;3.22;;
36105;SDS011;22159;55.736;38.048;2023-02-01T16:40:42;3.47;;;2.75;;
36105;SDS011;22159;55.736;38.048;2023-02-01T16:43:15;4.43;;;2.67;;
36105;SDS011;22159;55.736;38.048;2023-02-01T16:45:42;5.95;;;2.90;;
36105;SDS011;22159;55.736;38.048;2023-02-01T16:48:24;3.85;;;2.55;;
36105;SDS011;22159;55.736;38.048;2023-02-01T16:50:54;3.85;;;2.55;;
36105;SDS011;22159;55.736;38.048;2023-02-01T16:53:21;5.90;;;2.72;;
36105;SDS011;22159;55.736;38.048;2023-02-01T16:55:47;4.25;;;3.40;;
36105;SDS011;22159;55.736;38.048;2023-02-01T16:58:14;4.25;;;3.00;;
36105;SDS011;22159;55.736;38.048;2023-02-01T17:00:41;5.07;;;3.13;;
36105;SDS011;22159;55.736;38.048;2023-02-01T17:03:07;3.45;;;2.80;;
36105;SDS011;22159;55.736;38.048;2023-02-01T17:05:33;4.13;;;2.78;;
36105;SDS011;22159;55.736;38.048;2023-02-01T17:08:01;6.13;;;2.50;;
36105;SDS011;22159;55.736;38.048;2023-02-01T17:10:28;4.80;;;3.00;;
36105;SDS011;22159;55.736;38.048;2023-02-01T17:12:54;2.80;;;2.55;;
36105;SDS011;22159;55.736;38.048;2023-02-01T17:15:22;4.28;;;2.45;;
36105;SDS011;22159;55.736;38.048;2023-02-01T17:17:48;3.83;;;2.63;;
36105;SDS011;22159;55.736;38.048;2023-02-01T17:20:23;4.37;;;2.80;;
36105;SDS011;22159;55.736;38.048;2023-02-01T17:22:49;3.53;;;2.92;;